Terminal Aerodrome Forecast
Issued by NWS

Home | Current Version | Previous Version | Graphics & Text | Print | Product List | Glossary Off
Versions: 1 2 3 4 5 6 7 8 9 10 11 12 13

000
FTUS42 KMHX 271139
TAFPGV
TAF
KPGV 271139Z 2712/2812 18005KT P6SM SCT025 BKN040
      TEMPO 2712/2713 BKN020
     FM271700 20010G15KT P6SM VCSH BKN040
     FM272300 19005KT P6SM BKN040
      AMD LTD TO CLD VIS AND WIND=

USA.gov is the U.S. government's official web portal to all federal, state and local government web resources and services.